Flight Track Log - Related Links

Times and Time Zones

All times are in EDT time to prevent confusion due to time zone crossing. See the SWA2852 flight status page for this flight to view local times or setup timezone preferences in your user account.

Time Position Orientation Groundspeed Altitude Reporting Facility
EDT Latitude Longitude Course Direction KTS MPH feet Rate Location/Type
Mon 05:09:45 PM 43.1661 -77.6086 32° Northeast 266 306 4,600  Level Cleveland Center
Mon 05:10:25 PM 43.1819 -77.6592 293° West 264 304 6,900 3,540 Climbing Cleveland Center
Mon 05:11:25 PM 43.1844 -77.7644 272° West 276 318 10,500 2,650 Climbing Cleveland Center
Mon 05:12:25 PM 43.1897 -77.8922 273° West 309 356 12,200 2,500 Climbing Cleveland Center
Mon 05:13:25 PM 43.1950 -78.0375 273° West 353 406 15,500 2,600 Climbing Cleveland Center
Mon 05:14:00 PM 43.1754 -78.4812 203° Southwest  Level FlightAware Approximate
Mon 05:15:25 PM 43.1069 -78.3111 246° West 389 448 20,000  Level Cleveland Center
Mon 05:16:25 PM 43.0383 -78.4358 233° Southwest 404 465 20,100 1,250 Climbing Cleveland Center
Mon 05:17:25 PM 42.9719 -78.5686 236° Southwest 418 481 22,500 2,400 Climbing Cleveland Center
Mon 05:18:25 PM 42.9203 -78.7178 245° Southwest 432 497 24,900 2,200 Climbing Cleveland Center
Mon 05:19:25 PM 42.9083 -78.8825 264° West 428 493 26,900 1,200 Climbing Cleveland Center
Mon 05:20:25 PM 42.8939 -79.0500 263° West 440 506 27,300 1,600 Climbing Cleveland Center
Mon 05:21:25 PM 42.8606 -79.2067 254° West 445 512 30,100 2,700 Climbing Cleveland Center
Mon 05:22:25 PM 42.8289 -79.3603 254° West 434 499 32,700 1,950 Climbing Cleveland Center
Mon 05:23:25 PM 42.7908 -79.5108 251° West 429 494 34,000 650 Climbing Cleveland Center
Mon 05:24:25 PM 42.7567 -79.6614 253° West 418 481 34,000  Level Cleveland Center
Mon 05:25:25 PM 42.7014 -79.7950 241° Southwest 418 481 34,000  Level Cleveland Center
Mon 05:26:25 PM 42.6333 -79.9200 234° Southwest 408 470 34,000 400 Level Cleveland Center
Mon 05:27:25 PM 42.5592 -80.0617 235° Southwest 420 483 34,800 600 Climbing Cleveland Center
Mon 05:28:25 PM 42.4908 -80.1889 234° Southwest 420 483 35,200 600 Climbing Cleveland Center
Mon 05:29:25 PM 42.4558 -80.3186 250° West 414 476 36,000 400 Climbing Cleveland Center
Mon 05:30:25 PM 42.4267 -80.4650 255° West 413 475 36,000  Level Cleveland Center
Mon 05:31:25 PM 42.3956 -80.6086 254° West 413 475 36,000  Level Cleveland Center
Mon 05:32:25 PM 42.3664 -80.7603 255° West 413 475 36,000  Level Cleveland Center
Mon 05:33:25 PM 42.3347 -80.9061 254° West 413 475 36,000  Level Cleveland Center
Mon 05:34:25 PM 42.3028 -81.0547 254° West 413 475 36,000  Level Cleveland Center
Mon 05:35:25 PM 42.2708 -81.2006 254° West 413 475 36,000  Level Cleveland Center
Mon 05:36:25 PM 42.2408 -81.3489 255° West 418 481 36,000  Level Cleveland Center
Mon 05:37:25 PM 42.2042 -81.5108 253° West 412 474 36,000  Level Cleveland Center
Mon 05:38:25 PM 42.1739 -81.6561 254° West 412 474 36,000  Level Cleveland Center
Mon 05:39:25 PM 42.1433 -81.7986 254° West 412 474 36,000  Level Cleveland Center
Mon 05:40:25 PM 42.1103 -81.9489 254° West 412 474 36,000  Level Cleveland Center
Mon 05:41:25 PM 42.0792 -82.0911 254° West 412 474 36,000  Level Cleveland Center
Mon 05:42:25 PM 42.0439 -82.2383 252° West 412 474 36,000  Level Cleveland Center
Mon 05:43:25 PM 42.0144 -82.3858 255° West 412 474 36,000  Level Cleveland Center
Mon 05:44:25 PM 41.9789 -82.5328 252° West 417 480 36,000  Level Cleveland Center
Mon 05:45:25 PM 41.9450 -82.6769 253° West 417 480 36,000  Level Cleveland Center
Mon 05:46:25 PM 41.9131 -82.8267 254° West 417 480 36,000  Level Cleveland Center
Mon 05:47:25 PM 41.8767 -82.9758 252° West 417 480 36,000  Level Cleveland Center
Mon 05:48:25 PM 41.8442 -83.1253 254° West 417 480 36,000  Level Cleveland Center
Mon 05:49:25 PM 41.8075 -83.2769 252° West 422 486 36,000  Level Cleveland Center
Mon 05:50:25 PM 41.7725 -83.4231 252° West 422 486 36,000  Level Cleveland Center
Mon 05:51:25 PM 41.7375 -83.5775 253° West 422 486 36,000  Level Cleveland Center
Mon 05:52:25 PM 41.7019 -83.7289 253° West 422 486 36,000  Level Cleveland Center
Mon 05:53:25 PM 41.6667 -83.8744 252° West 427 491 36,000  Level Cleveland Center
Mon 05:55:24 PM 41.5989 -84.1619 253° West 419 482 36,000  Level Chicago Center
Mon 05:56:26 PM 41.5647 -84.3089 253° West 417 480 36,000 -774 Level Chicago Center
Mon 05:57:28 PM 41.5275 -84.4556 251° West 417 480 34,400 -2,565 Descending Chicago Center
Mon 05:58:30 PM 41.4894 -84.6119 252° West 430 495 30,700 -2,129 Descending Chicago Center
Mon 05:59:32 PM 41.4856 -84.7686 268° West 438 504 30,000 -323 Descending Chicago Center
Mon 06:01:36 PM 41.4978 -85.1286 273° West 440 506 29,700 -1,032 Descending Chicago Center
Mon 06:02:38 PM 41.5033 -85.2928 273° West 439 505 26,800 -2,661 Descending Chicago Center
Mon 06:03:40 PM 41.5075 -85.4500 272° West 421 484 24,200 -1,694 Descending Chicago Center
Mon 06:04:42 PM 41.5114 -85.6022 272° West 405 466 23,300 -919 Descending Chicago Center
Mon 06:05:44 PM 41.5136 -85.7581 271° West 413 475 22,300 -1,597 Descending Chicago Center
Mon 06:06:46 PM 41.5167 -85.9067 272° West 407 468 20,000 -2,208 Descending Chicago Center
Mon 06:07:49 PM 41.5181 -86.0475 271° West 384 442 17,700 -2,758 Descending Chicago Center
Mon 06:08:50 PM 41.5197 -86.2172 271° West 381 438 14,300 -2,903 Descending Chicago Center
Mon 06:09:53 PM 41.5222 -86.3517 271° West 368 423 11,700 -1,584 Descending Chicago Center
Mon 06:10:55 PM 41.5239 -86.4808 271° West 351 404 11,000 -823 Descending Chicago Center
Mon 06:11:57 PM 41.5203 -86.6031 268° West 335 386 10,000 -629 Descending Chicago Center
Mon 06:12:59 PM 41.4978 -86.7136 255° West 275 316 9,700 -629 Descending Chicago Center
Mon 06:14:01 PM 41.4603 -86.7944 238° Southwest 258 297 8,700 -871 Descending Chicago Center
Mon 06:15:03 PM 41.4772 -86.8950 283° West 274 315 7,900 -968 Descending Chicago Center
Mon 06:16:05 PM 41.4908 -86.9931 281° West 272 313 6,700 -968 Descending Chicago Center
Mon 06:17:07 PM 41.5056 -87.0906 281° West 270 311 5,900 -387 Descending Chicago Center
Mon 06:18:09 PM 41.5189 -87.2097 279° West 272 313 5,900 50 Level Chicago Center
Mon 06:19:06 PM 41.5167 -87.3000 268° West 268 308 6,000 -462 Climbing Chicago TRACON
Mon 06:20:06 PM 41.5167 -87.4000 270° West 277 319 5,000 -900 Descending Chicago TRACON
Mon 06:21:06 PM 41.5167 -87.5000 270° West 275 316 4,200 -450 Descending Chicago TRACON
Mon 06:22:06 PM 41.5167 -87.6000 270° West 270 311 4,100 -150 Descending Chicago TRACON
Mon 06:23:06 PM 41.5500 -87.6833 298° West 274 315 3,900 -500 Descending Chicago TRACON
Mon 06:24:06 PM 41.5833 -87.7833 294° West 275 316 3,100 -711 Descending Chicago TRACON
Mon 06:24:22 PM 41.5903 -87.7997 300° West 274 315 3,000 -538 Descending Chicago Center
Mon 06:25:24 PM 41.6211 -87.8747 299° West 252 290 2,400 -290 Descending Chicago Center
Mon 06:26:26 PM 41.6661 -87.8942 342° North 212 244 2,400 59 Level Chicago Center
Mon 06:27:06 PM 41.7000 -87.8667 31° Northeast 181 208 2,500 -300 Climbing Chicago TRACON
Mon 06:28:06 PM 41.7333 -87.8167 48° Northeast 163 188 1,900 -694 Descending Chicago TRACON
Mon 06:29:07 PM 41.7667 -87.7833 37° Northeast 140 161 1,100 -787 Descending Chicago TRACON
Mon 06:31:00 PM 41.7833 -87.7500 28° Northeast  Level FlightAware Approximate

Login

Don't have an account? Register now (free) for customized features, flight alerts, and more!